createdAt,value
2023-01-07T00:01:52.788Z,7.02
2023-01-07T00:05:10.181Z,7.05
2023-01-07T00:08:26.608Z,7.07
2023-01-07T00:11:45.707Z,7.10
2023-01-07T00:15:02.087Z,7.11
2023-01-07T00:18:18.545Z,7.15
2023-01-07T00:21:36.959Z,7.17
2023-01-07T00:24:54.207Z,7.17
2023-01-07T00:28:11.905Z,7.19
2023-01-07T00:31:30.958Z,7.19
2023-01-07T00:34:45.147Z,7.19
2023-01-07T00:38:01.924Z,7.17
2023-01-07T00:41:19.286Z,7.17
2023-01-07T00:44:35.948Z,7.18
2023-01-07T00:47:54.261Z,7.18
2023-01-07T00:51:10.720Z,7.22
2023-01-07T00:54:27.275Z,7.20
2023-01-07T00:57:43.799Z,7.22
2023-01-07T01:01:06.008Z,7.26
2023-01-07T01:04:23.004Z,7.29
2023-01-07T01:07:40.221Z,7.27
2023-01-07T01:10:58.940Z,7.29
2023-01-07T01:14:15.519Z,7.32
2023-01-07T01:17:34.684Z,7.34
2023-01-07T01:20:54.225Z,7.37
2023-01-07T01:24:10.645Z,7.37
2023-01-07T01:27:27.866Z,7.38
2023-01-07T01:30:46.653Z,7.41
2023-01-07T01:34:05.594Z,7.42
2023-01-07T01:37:23.495Z,7.41
2023-01-07T01:40:40.662Z,7.42
2023-01-07T01:43:57.368Z,7.42
2023-01-07T01:47:21.582Z,7.40
2023-01-07T01:50:42.945Z,7.41
2023-01-07T01:54:00.466Z,7.37
2023-01-07T01:57:17.605Z,7.35
2023-01-07T02:00:36.040Z,7.37
2023-01-07T02:03:58.505Z,7.34
2023-01-07T02:07:19.981Z,7.33
2023-01-07T02:10:38.370Z,7.29
2023-01-07T02:14:08.304Z,7.32
2023-01-07T02:17:30.580Z,7.32
2023-01-07T02:21:12.856Z,7.34
2023-01-07T02:25:28.066Z,7.32
2023-01-07T02:29:12.218Z,7.33
2023-01-07T02:32:49.473Z,7.28
2023-01-07T02:36:26.034Z,7.30
2023-01-07T02:39:51.628Z,7.32
2023-01-07T02:43:15.826Z,7.29
2023-01-07T02:46:39.219Z,7.31
2023-01-07T02:49:59.151Z,7.31
2023-01-07T02:53:18.474Z,7.33
2023-01-07T02:56:43.612Z,7.33
2023-01-07T03:00:23.504Z,7.36
2023-01-07T03:03:58.944Z,7.35
2023-01-07T03:07:33.013Z,7.32
2023-01-07T03:10:54.434Z,7.35
2023-01-07T03:14:17.245Z,7.34
2023-01-07T03:17:39.477Z,7.34
2023-01-07T03:21:00.222Z,7.33
2023-01-07T03:24:18.639Z,7.33
2023-01-07T03:27:39.242Z,7.32
2023-01-07T03:30:57.942Z,7.27
2023-01-07T03:34:18.677Z,7.20
2023-01-07T03:37:39.998Z,7.13
2023-01-07T03:40:57.265Z,7.08
2023-01-07T03:44:16.908Z,7.07
2023-01-07T03:47:34.004Z,7.04
2023-01-07T03:50:50.609Z,7.02
2023-01-07T03:54:07.223Z,7.01
2023-01-07T03:57:24.441Z,6.98
2023-01-07T04:00:41.236Z,6.94
2023-01-07T04:04:03.346Z,6.92
2023-01-07T04:07:20.132Z,6.89
2023-01-07T04:10:36.375Z,6.87
2023-01-07T04:13:54.092Z,6.84
2023-01-07T04:17:11.646Z,6.79
2023-01-07T04:20:28.138Z,6.74
2023-01-07T04:23:44.651Z,6.72
2023-01-07T04:27:01.358Z,6.66
2023-01-07T04:30:19.835Z,6.54
2023-01-07T04:33:36.737Z,6.42
2023-01-07T04:36:53.410Z,6.46
2023-01-07T04:40:12.111Z,6.43
2023-01-07T04:43:28.516Z,6.43
2023-01-07T04:46:45.012Z,6.40
2023-01-07T04:50:03.279Z,6.36
2023-01-07T04:53:21.994Z,6.34
2023-01-07T04:56:38.565Z,6.34
2023-01-07T04:59:58.118Z,6.28
2023-01-07T05:03:15.392Z,6.25
2023-01-07T05:06:32.699Z,6.25
2023-01-07T05:09:49.132Z,6.26
2023-01-07T05:13:09.487Z,6.28
2023-01-07T05:16:26.678Z,6.24
2023-01-07T05:19:46.400Z,6.26
2023-01-07T05:23:02.914Z,6.28
2023-01-07T05:26:19.355Z,6.26
2023-01-07T05:29:38.982Z,6.22
2023-01-07T05:32:55.175Z,6.14
2023-01-07T05:36:12.755Z,6.06
2023-01-07T05:39:28.956Z,5.94
2023-01-07T05:42:45.927Z,6.02
2023-01-07T05:46:03.306Z,6.06
2023-01-07T05:49:19.939Z,6.01
2023-01-07T05:52:36.128Z,5.81
2023-01-07T05:55:52.956Z,5.78
2023-01-07T05:59:09.152Z,5.85
2023-01-07T06:02:25.528Z,5.92
2023-01-07T06:05:43.219Z,5.87
2023-01-07T06:09:00.184Z,5.79
2023-01-07T06:12:16.971Z,5.67
2023-01-07T06:15:34.139Z,5.43
2023-01-07T06:18:50.767Z,5.28
2023-01-07T06:22:07.410Z,5.04
2023-01-07T06:25:23.987Z,4.84
2023-01-07T06:28:41.119Z,4.78
2023-01-07T06:31:57.365Z,4.71
2023-01-07T06:35:16.284Z,4.65
2023-01-07T06:38:32.505Z,4.58
2023-01-07T06:41:48.922Z,4.45
2023-01-07T06:45:05.143Z,4.34
2023-01-07T06:48:21.500Z,4.22
2023-01-07T06:51:37.588Z,4.11
2023-01-07T06:54:54.334Z,4.02
2023-01-07T06:58:10.552Z,3.83
2023-01-07T07:01:27.427Z,3.82
2023-01-07T07:04:43.636Z,3.86
2023-01-07T07:08:01.151Z,3.91
2023-01-07T07:11:17.520Z,3.97
2023-01-07T07:14:35.193Z,3.99
2023-01-07T07:17:51.488Z,3.97
2023-01-07T07:21:08.006Z,3.99
2023-01-07T07:24:26.383Z,4.02
2023-01-07T07:27:43.061Z,4.15
2023-01-07T07:30:59.467Z,4.31
2023-01-07T07:34:16.802Z,4.48
2023-01-07T07:37:33.121Z,4.67
2023-01-07T07:40:49.853Z,5.15
2023-01-07T07:44:06.318Z,5.32
2023-01-07T07:47:23.081Z,5.47
2023-01-07T07:50:42.504Z,5.70
2023-01-07T07:53:59.638Z,5.94
2023-01-07T07:57:17.410Z,6.11
2023-01-07T08:00:37.079Z,6.29
2023-01-07T08:03:53.929Z,6.43
2023-01-07T08:07:10.636Z,6.57
2023-01-07T08:10:27.819Z,6.67
2023-01-07T08:13:45.093Z,6.77
2023-01-07T08:17:01.395Z,6.90
2023-01-07T08:20:20.068Z,7.13
2023-01-07T08:23:36.616Z,7.30
2023-01-07T08:26:57.611Z,7.42
2023-01-07T08:30:17.887Z,7.57
2023-01-07T08:33:36.494Z,7.64
2023-01-07T08:36:52.804Z,7.63
2023-01-07T08:40:09.820Z,7.81
2023-01-07T08:43:26.001Z,7.93
2023-01-07T08:46:43.621Z,8.11
2023-01-07T08:49:59.990Z,8.28
2023-01-07T08:53:16.678Z,8.37
2023-01-07T08:56:34.320Z,8.45
2023-01-07T08:59:51.748Z,8.52
2023-01-07T09:03:09.347Z,8.56
2023-01-07T09:06:25.875Z,8.66
2023-01-07T09:09:43.913Z,8.69
2023-01-07T09:13:00.733Z,8.84
2023-01-07T09:16:17.616Z,8.92
2023-01-07T09:19:34.496Z,8.93
2023-01-07T09:22:50.734Z,9.04
2023-01-07T09:26:07.579Z,9.18
2023-01-07T09:29:23.712Z,9.25
2023-01-07T09:32:39.987Z,9.28
2023-01-07T09:35:59.069Z,9.34
2023-01-07T09:39:17.527Z,9.34
2023-01-07T09:42:39.551Z,9.42
2023-01-07T09:46:00.662Z,9.54
2023-01-07T09:49:21.806Z,9.65
2023-01-07T09:52:42.719Z,9.79
2023-01-07T09:56:12.461Z,9.87
2023-01-07T09:59:22.990Z,9.90
2023-01-07T10:02:47.207Z,9.95
2023-01-07T10:06:12.648Z,10.07
2023-01-07T10:09:37.517Z,10.14
2023-01-07T10:12:58.679Z,10.24
2023-01-07T10:16:23.106Z,10.32
2023-01-07T10:19:44.965Z,10.40
2023-01-07T10:23:06.805Z,10.41
2023-01-07T10:26:35.406Z,10.36
2023-01-07T10:29:56.367Z,10.22
2023-01-07T10:33:26.014Z,10.25
2023-01-07T10:36:49.531Z,10.29
2023-01-07T10:40:33.358Z,10.32
2023-01-07T10:44:09.465Z,10.44
2023-01-07T10:47:37.230Z,10.54
2023-01-07T10:51:20.523Z,10.56
2023-01-07T10:54:57.790Z,10.57
2023-01-07T10:58:16.739Z,10.53
2023-01-07T11:01:39.529Z,10.44
2023-01-07T11:04:55.829Z,10.24
2023-01-07T11:08:17.202Z,10.18
2023-01-07T11:11:36.840Z,10.07
2023-01-07T11:14:54.622Z,10.07
2023-01-07T11:18:16.440Z,9.93
2023-01-07T11:21:50.472Z,9.81
2023-01-07T11:25:08.754Z,9.65
2023-01-07T11:28:32.520Z,9.62
2023-01-07T11:32:01.292Z,9.36
2023-01-07T11:35:29.057Z,9.34
2023-01-07T11:38:48.116Z,9.38
2023-01-07T11:42:10.895Z,9.20
2023-01-07T11:45:31.053Z,9.09
2023-01-07T11:49:45.911Z,9.11
2023-01-07T11:52:28.981Z,9.07
2023-01-07T11:55:45.613Z,9.17
2023-01-07T11:59:23.805Z,9.21
2023-01-07T12:02:42.706Z,9.16
2023-01-07T12:06:03.121Z,9.09
2023-01-07T12:09:40.909Z,9.13
2023-01-07T12:12:57.429Z,9.15
2023-01-07T12:16:16.628Z,9.17
2023-01-07T12:19:50.913Z,9.19
2023-01-07T12:23:15.461Z,9.29
2023-01-07T12:26:38.658Z,9.36
2023-01-07T12:30:06.601Z,9.40
2023-01-07T12:33:33.802Z,9.41
2023-01-07T12:36:55.989Z,9.42
2023-01-07T12:40:30.767Z,9.48
2023-01-07T12:43:51.265Z,9.48
2023-01-07T12:47:30.893Z,9.49
2023-01-07T12:50:44.369Z,9.47
2023-01-07T12:54:06.207Z,9.47
2023-01-07T12:57:27.122Z,9.41
2023-01-07T13:00:49.074Z,9.30
2023-01-07T13:04:14.556Z,9.24
2023-01-07T13:07:36.987Z,9.27
2023-01-07T13:10:57.880Z,9.22
2023-01-07T13:14:22.981Z,9.21
2023-01-07T13:17:41.546Z,9.22
2023-01-07T13:21:11.971Z,9.15
2023-01-07T13:24:55.709Z,9.19
2023-01-07T13:29:01.738Z,9.21
2023-01-07T13:32:43.820Z,9.18
2023-01-07T13:36:13.014Z,9.16
2023-01-07T13:39:50.126Z,9.19
2023-01-07T13:43:12.790Z,9.17
2023-01-07T13:46:33.844Z,9.14
2023-01-07T13:49:56.341Z,9.11
2023-01-07T13:53:21.481Z,9.11
2023-01-07T13:56:47.609Z,9.10
2023-01-07T14:00:06.822Z,9.03
2023-01-07T14:03:54.133Z,8.97
2023-01-07T14:07:15.731Z,9.02
2023-01-07T14:10:36.275Z,8.99
2023-01-07T14:13:57.347Z,9.02
2023-01-07T14:17:20.207Z,9.03
2023-01-07T14:20:43.140Z,9.03
2023-01-07T14:24:10.573Z,8.97
2023-01-07T14:27:44.275Z,8.96
2023-01-07T14:31:02.961Z,8.98
2023-01-07T14:34:28.689Z,8.96
2023-01-07T14:37:47.824Z,8.49
2023-01-07T14:41:16.745Z,8.30
2023-01-07T14:44:40.114Z,8.31
2023-01-07T14:48:03.234Z,8.27
2023-01-07T14:51:41.516Z,8.25
2023-01-07T14:55:39.823Z,8.21
2023-01-07T14:59:27.392Z,8.20
2023-01-07T15:03:29.310Z,8.17
2023-01-07T15:06:47.961Z,8.12
2023-01-07T15:10:22.021Z,8.07
2023-01-07T15:13:56.350Z,8.00
2023-01-07T15:17:13.131Z,7.97
2023-01-07T15:20:30.288Z,7.88
2023-01-07T15:23:51.888Z,7.65
2023-01-07T15:27:14.297Z,7.40
2023-01-07T15:30:44.075Z,7.02
2023-01-07T15:34:17.988Z,6.59
2023-01-07T15:37:34.670Z,6.18
2023-01-07T15:40:54.865Z,5.94
2023-01-07T15:44:13.392Z,5.86
2023-01-07T15:47:48.350Z,5.74
2023-01-07T15:51:05.452Z,5.42
2023-01-07T15:54:47.027Z,5.18
2023-01-07T15:58:11.604Z,5.12
2023-01-07T16:01:31.050Z,5.31
2023-01-07T16:04:49.334Z,5.60
2023-01-07T16:08:07.752Z,5.68
2023-01-07T16:11:34.966Z,5.61
2023-01-07T16:14:51.162Z,5.57
2023-01-07T16:18:09.887Z,5.46
2023-01-07T16:21:26.525Z,5.36
2023-01-07T16:24:43.466Z,5.29
2023-01-07T16:28:00.805Z,5.22
2023-01-07T16:31:21.262Z,4.98
2023-01-07T16:35:03.524Z,4.82
2023-01-07T16:38:20.739Z,4.84
2023-01-07T16:41:38.275Z,4.77
2023-01-07T16:45:10.257Z,4.59
2023-01-07T16:48:29.172Z,4.58
2023-01-07T16:51:48.872Z,4.36
2023-01-07T16:55:05.264Z,4.33
2023-01-07T16:58:38.230Z,4.31
2023-01-07T17:01:54.870Z,4.21
2023-01-07T17:05:25.525Z,4.08
2023-01-07T17:08:43.149Z,3.83
2023-01-07T17:12:01.032Z,3.60
2023-01-07T17:15:44.405Z,3.48
2023-01-07T17:19:02.613Z,3.45
2023-01-07T17:22:39.116Z,3.36
2023-01-07T17:25:55.580Z,3.39
2023-01-07T17:29:16.851Z,3.42
2023-01-07T17:32:33.179Z,3.40
2023-01-07T17:35:55.049Z,3.27
2023-01-07T17:39:11.547Z,3.07
2023-01-07T17:42:52.252Z,3.17
2023-01-07T17:46:09.745Z,3.28
2023-01-07T17:49:26.344Z,3.32
2023-01-07T17:52:42.750Z,3.28
2023-01-07T17:55:59.095Z,3.35
2023-01-07T17:59:17.913Z,3.60
2023-01-07T18:02:37.178Z,3.80
2023-01-07T18:05:51.212Z,3.78
2023-01-07T18:09:09.648Z,3.62
2023-01-07T18:12:37.092Z,3.37
2023-01-07T18:15:53.218Z,3.35
2023-01-07T18:19:09.546Z,3.20
2023-01-07T18:22:26.248Z,3.20
2023-01-07T18:25:42.616Z,3.21
2023-01-07T18:28:59.578Z,2.91
2023-01-07T18:32:16.324Z,2.91
2023-01-07T18:35:32.744Z,2.97
2023-01-07T18:38:50.566Z,2.94
2023-01-07T18:42:06.934Z,2.81
2023-01-07T18:45:23.962Z,2.77
2023-01-07T18:48:40.178Z,2.73
2023-01-07T18:51:57.343Z,2.59
2023-01-07T18:55:17.351Z,2.54
2023-01-07T18:58:34.066Z,2.57
2023-01-07T19:01:50.325Z,2.56
2023-01-07T19:05:08.001Z,2.40
2023-01-07T19:08:24.071Z,2.31
2023-01-07T19:11:40.312Z,2.34
2023-01-07T19:14:56.563Z,2.18
2023-01-07T19:18:13.280Z,2.17
2023-01-07T19:21:29.644Z,2.13
2023-01-07T19:24:45.972Z,2.20
2023-01-07T19:28:02.163Z,2.05
2023-01-07T19:31:19.137Z,2.10
2023-01-07T19:34:36.046Z,2.10
2023-01-07T19:37:52.240Z,2.20
2023-01-07T19:41:08.586Z,2.12
2023-01-07T19:44:25.219Z,2.08
2023-01-07T19:47:42.787Z,2.05
2023-01-07T19:51:06.210Z,2.28
2023-01-07T19:54:24.211Z,2.31
2023-01-07T19:57:40.589Z,2.46
2023-01-07T20:00:58.036Z,2.31
2023-01-07T20:04:15.228Z,2.25
2023-01-07T20:07:33.401Z,2.11
2023-01-07T20:10:49.861Z,2.15
2023-01-07T20:14:05.895Z,2.16
2023-01-07T20:17:22.260Z,2.07
2023-01-07T20:20:38.670Z,1.97
2023-01-07T20:27:10.922Z,2.31
2023-01-07T20:30:27.279Z,2.26
2023-01-07T20:33:44.413Z,2.56
2023-01-07T20:40:19.573Z,2.89
2023-01-07T20:43:35.960Z,2.97
2023-01-07T20:46:52.627Z,2.70
2023-01-07T20:50:10.578Z,2.75
2023-01-07T20:53:27.582Z,2.63
2023-01-07T20:56:45.665Z,2.68
2023-01-07T21:00:02.113Z,2.59
2023-01-07T21:03:18.573Z,2.55
2023-01-07T21:06:36.782Z,2.59
2023-01-07T21:13:13.033Z,2.54
2023-01-07T21:16:30.325Z,2.50
2023-01-07T21:19:49.618Z,2.46
2023-01-07T21:26:25.930Z,2.44
2023-01-07T21:29:42.704Z,2.29
2023-01-07T21:32:58.995Z,2.18
2023-01-07T21:36:22.492Z,2.09
2023-01-07T21:42:55.041Z,2.24
2023-01-07T21:46:12.149Z,2.33
2023-01-07T21:49:28.524Z,2.22
2023-01-07T21:56:01.428Z,1.87
2023-01-07T21:59:18.614Z,1.78
2023-01-07T22:02:36.024Z,1.66
2023-01-07T22:06:02.265Z,1.59
2023-01-07T22:12:33.948Z,1.44
2023-01-07T22:15:51.034Z,1.34
2023-01-07T22:19:07.857Z,1.26
2023-01-07T22:22:24.142Z,1.33
2023-01-07T22:25:41.542Z,1.22
2023-01-07T22:29:03.754Z,1.08
2023-01-07T22:32:20.016Z,0.99
2023-01-07T22:35:37.336Z,0.84
2023-01-07T22:42:13.618Z,0.83
2023-01-07T22:45:35.589Z,0.85
2023-01-07T22:48:54.600Z,0.91
2023-01-07T22:52:12.013Z,0.81
2023-01-07T22:55:29.081Z,0.85
2023-01-07T22:58:45.287Z,0.88
2023-01-07T23:02:01.416Z,0.88
2023-01-07T23:05:18.313Z,1.05
2023-01-07T23:08:34.680Z,1.10
2023-01-07T23:11:55.754Z,0.99
2023-01-07T23:15:13.778Z,1.06
2023-01-07T23:18:30.155Z,1.01
2023-01-07T23:21:49.976Z,1.00
2023-01-07T23:28:22.716Z,1.04
2023-01-07T23:31:39.755Z,1.06
2023-01-07T23:34:56.278Z,1.18
2023-01-07T23:38:12.424Z,1.26
2023-01-07T23:41:28.878Z,1.31
2023-01-07T23:44:45.136Z,1.40
2023-01-07T23:48:01.411Z,1.42
2023-01-07T23:51:20.938Z,1.43
2023-01-07T23:54:37.233Z,1.49
2023-01-07T23:57:53.480Z,1.48
